createdAt,value
2022-12-24T00:00:46.612Z,1.49
2022-12-24T00:05:48.108Z,1.49
2022-12-24T00:10:53.589Z,1.54
2022-12-24T00:15:55.121Z,1.53
2022-12-24T00:20:56.610Z,1.58
2022-12-24T00:25:58.148Z,1.61
2022-12-24T00:30:59.679Z,1.59
2022-12-24T00:36:01.147Z,1.53
2022-12-24T00:41:04.476Z,1.43
2022-12-24T00:46:06.000Z,1.38
2022-12-24T00:51:07.555Z,1.32
2022-12-24T00:56:09.745Z,1.28
2022-12-24T01:01:12.043Z,1.31
2022-12-24T01:06:16.666Z,1.32
2022-12-24T01:11:18.076Z,1.31
2022-12-24T01:16:20.833Z,1.30
2022-12-24T01:21:22.374Z,1.29
2022-12-24T01:26:23.860Z,1.32
2022-12-24T01:31:25.382Z,1.29
2022-12-24T01:36:26.862Z,1.35
2022-12-24T01:41:49.372Z,1.32
2022-12-24T01:46:54.962Z,1.43
2022-12-24T01:52:04.897Z,1.35
2022-12-24T01:57:24.196Z,1.35
2022-12-24T02:02:27.212Z,1.43
2022-12-24T02:07:29.347Z,1.30
2022-12-24T02:12:35.156Z,1.31
2022-12-24T02:18:01.632Z,1.35
2022-12-24T02:23:18.454Z,1.38
2022-12-24T02:28:32.087Z,1.32
2022-12-24T02:33:50.489Z,1.33
2022-12-24T02:39:04.081Z,1.36
2022-12-24T02:44:05.581Z,1.41
2022-12-24T02:49:07.198Z,1.35
2022-12-24T02:54:08.672Z,1.39
2022-12-24T02:59:34.434Z,1.46
2022-12-24T03:04:48.240Z,1.43
2022-12-24T03:10:17.839Z,1.41
2022-12-24T03:15:21.839Z,1.44
2022-12-24T03:20:31.154Z,1.49
2022-12-24T03:25:34.176Z,1.47
2022-12-24T03:30:38.837Z,1.49
2022-12-24T03:35:40.227Z,1.48
2022-12-24T03:40:41.814Z,1.50
2022-12-24T03:45:43.361Z,1.48
2022-12-24T03:50:44.858Z,1.50
2022-12-24T03:55:47.250Z,1.56
2022-12-24T04:00:48.754Z,1.54
2022-12-24T04:06:07.598Z,1.55
2022-12-24T04:11:11.201Z,1.62
2022-12-24T04:16:15.714Z,1.65
2022-12-24T04:21:17.279Z,1.66
2022-12-24T04:26:18.785Z,1.77
2022-12-24T04:31:20.324Z,1.75
2022-12-24T04:36:23.287Z,1.77
2022-12-24T04:41:25.228Z,1.76
2022-12-24T04:46:31.895Z,1.76
2022-12-24T04:51:33.515Z,1.80
2022-12-24T04:56:35.024Z,1.79
2022-12-24T05:01:36.748Z,1.79
2022-12-24T05:06:38.403Z,1.78
2022-12-24T05:11:39.927Z,1.82
2022-12-24T05:16:41.423Z,1.80
2022-12-24T05:21:42.906Z,1.82
2022-12-24T05:26:54.766Z,1.83
2022-12-24T05:31:56.254Z,1.80
2022-12-24T05:36:57.681Z,1.81
2022-12-24T05:41:59.157Z,1.81
2022-12-24T05:47:00.642Z,1.80
2022-12-24T05:52:02.071Z,1.79
2022-12-24T05:57:03.554Z,1.78
2022-12-24T06:02:05.188Z,1.76
2022-12-24T06:07:06.706Z,1.79
2022-12-24T06:12:08.275Z,1.82
2022-12-24T06:17:09.762Z,1.84
2022-12-24T06:22:11.220Z,1.82
2022-12-24T06:27:12.634Z,1.87
2022-12-24T06:32:14.123Z,1.83
2022-12-24T06:37:18.405Z,1.87
2022-12-24T06:42:19.848Z,1.94
2022-12-24T06:47:21.339Z,1.84
2022-12-24T06:52:22.846Z,1.82
2022-12-24T06:57:24.304Z,1.81
2022-12-24T07:02:26.429Z,1.78
2022-12-24T07:07:28.022Z,1.83
2022-12-24T07:12:29.679Z,1.90
2022-12-24T07:17:31.127Z,1.94
2022-12-24T07:22:32.711Z,1.88
2022-12-24T07:27:34.165Z,1.85
2022-12-24T07:32:35.602Z,1.87
2022-12-24T07:37:37.229Z,1.95
2022-12-24T07:42:38.679Z,1.90
2022-12-24T07:47:40.190Z,1.92
2022-12-24T07:52:41.629Z,1.92
2022-12-24T07:57:43.019Z,1.90
2022-12-24T08:02:44.839Z,2.01
2022-12-24T08:07:46.463Z,1.93
2022-12-24T08:12:48.348Z,1.98
2022-12-24T08:17:49.925Z,2.03
2022-12-24T08:22:52.395Z,2.07
2022-12-24T08:27:53.889Z,2.07
2022-12-24T08:32:55.325Z,2.12
2022-12-24T08:37:56.924Z,2.14
2022-12-24T08:42:58.422Z,2.21
2022-12-24T08:48:00.492Z,2.23
2022-12-24T08:53:02.124Z,2.26
2022-12-24T08:58:03.636Z,2.26
2022-12-24T09:03:05.228Z,2.36
2022-12-24T09:08:06.771Z,2.31
2022-12-24T09:13:08.175Z,2.37
2022-12-24T09:18:10.590Z,2.43
2022-12-24T09:23:12.138Z,2.47
2022-12-24T09:28:13.559Z,2.49
2022-12-24T09:33:15.125Z,2.57
2022-12-24T09:38:16.641Z,2.62
2022-12-24T09:43:20.362Z,2.75
2022-12-24T09:48:27.983Z,2.75
2022-12-24T09:53:57.156Z,2.78
2022-12-24T09:59:01.386Z,2.81
2022-12-24T10:04:27.307Z,2.85
2022-12-24T10:09:51.029Z,2.89
2022-12-24T10:14:59.234Z,2.87
2022-12-24T10:20:29.185Z,2.93
2022-12-24T10:25:33.932Z,2.92
2022-12-24T10:30:35.842Z,2.94
2022-12-24T10:35:45.116Z,2.99
2022-12-24T10:40:50.208Z,3.02
2022-12-24T10:45:56.966Z,3.07
2022-12-24T10:51:04.059Z,3.15
2022-12-24T10:56:09.274Z,3.14
2022-12-24T11:01:10.923Z,3.14
2022-12-24T11:06:21.222Z,3.14
2022-12-24T11:11:23.451Z,3.18
2022-12-24T11:16:32.121Z,3.32
2022-12-24T11:21:40.101Z,3.38
2022-12-24T11:26:44.488Z,3.46
2022-12-24T11:31:47.321Z,3.42
2022-12-24T11:36:50.928Z,3.41
2022-12-24T11:41:54.141Z,3.42
2022-12-24T11:46:59.174Z,3.44
2022-12-24T11:52:09.883Z,3.41
2022-12-24T11:57:15.874Z,3.39
2022-12-24T12:02:35.056Z,3.36
2022-12-24T12:07:38.631Z,3.40
2022-12-24T12:12:47.091Z,3.42
2022-12-24T12:17:57.486Z,3.42
2022-12-24T12:23:15.187Z,3.42
2022-12-24T12:28:27.011Z,3.41
2022-12-24T12:33:38.847Z,3.52
2022-12-24T12:38:40.731Z,3.66
2022-12-24T12:44:13.924Z,3.56
2022-12-24T12:49:34.145Z,3.50
2022-12-24T12:55:11.111Z,3.51
2022-12-24T13:00:17.244Z,3.50
2022-12-24T13:05:36.827Z,3.56
2022-12-24T13:10:54.192Z,3.56
2022-12-24T13:16:23.752Z,3.52
2022-12-24T13:21:29.833Z,3.50
2022-12-24T13:26:31.352Z,3.53
2022-12-24T13:31:32.862Z,3.52
2022-12-24T13:37:16.546Z,3.52
2022-12-24T13:42:50.169Z,3.52
2022-12-24T13:47:51.643Z,3.57
2022-12-24T13:52:54.247Z,3.55
2022-12-24T13:58:05.363Z,3.61
2022-12-24T14:03:09.775Z,3.57
2022-12-24T14:08:34.681Z,3.59
2022-12-24T14:13:39.248Z,3.58
2022-12-24T14:18:42.218Z,3.63
2022-12-24T14:23:56.210Z,3.55
2022-12-24T14:29:03.102Z,3.55
2022-12-24T14:34:12.274Z,3.53
2022-12-24T14:39:31.013Z,3.57
2022-12-24T14:44:44.219Z,3.54
2022-12-24T14:50:11.191Z,3.64
2022-12-24T14:55:37.977Z,3.67
2022-12-24T15:00:42.790Z,3.69
2022-12-24T15:05:45.818Z,3.74
2022-12-24T15:10:52.291Z,3.71
2022-12-24T15:15:55.431Z,3.68
2022-12-24T15:21:04.335Z,3.70
2022-12-24T15:26:18.827Z,3.64
2022-12-24T15:31:24.926Z,3.62
2022-12-24T15:36:31.390Z,3.66
2022-12-24T15:42:01.436Z,3.68
2022-12-24T15:47:05.988Z,3.70
2022-12-24T15:52:19.538Z,3.71
2022-12-24T15:57:29.558Z,3.70
2022-12-24T16:02:43.122Z,3.70
2022-12-24T16:08:08.716Z,3.71
2022-12-24T16:13:28.144Z,3.74
2022-12-24T16:18:39.088Z,3.76
2022-12-24T16:23:50.838Z,3.73
2022-12-24T16:28:52.334Z,3.74
2022-12-24T16:33:57.194Z,3.70
2022-12-24T16:39:18.179Z,3.91
2022-12-24T16:44:19.838Z,3.91
2022-12-24T16:49:22.701Z,3.78
2022-12-24T16:54:24.200Z,3.81
2022-12-24T16:59:25.657Z,3.74
2022-12-24T17:04:27.070Z,3.76
2022-12-24T17:09:28.523Z,3.77
2022-12-24T17:14:30.098Z,3.77
2022-12-24T17:19:31.929Z,3.83
2022-12-24T17:24:33.465Z,3.86
2022-12-24T17:29:35.020Z,3.88
2022-12-24T17:34:36.650Z,3.93
2022-12-24T17:39:38.177Z,3.94
2022-12-24T17:44:39.661Z,3.95
2022-12-24T17:49:41.138Z,4.01
2022-12-24T17:54:42.612Z,4.08
2022-12-24T17:59:44.243Z,4.17
2022-12-24T18:04:45.700Z,4.19
2022-12-24T18:09:47.138Z,4.28
2022-12-24T18:14:48.550Z,4.37
2022-12-24T18:19:50.104Z,4.44
2022-12-24T18:24:51.552Z,4.55
2022-12-24T18:29:53.039Z,4.56
2022-12-24T18:34:54.502Z,4.62
2022-12-24T18:39:55.946Z,4.65
2022-12-24T18:44:57.406Z,4.73
2022-12-24T18:49:58.905Z,4.72
2022-12-24T18:55:00.369Z,4.81
2022-12-24T19:00:01.872Z,4.92
2022-12-24T19:05:03.492Z,5.07
2022-12-24T19:10:05.464Z,5.18
2022-12-24T19:15:07.398Z,5.26
2022-12-24T19:20:10.387Z,5.40
2022-12-24T19:25:11.982Z,5.54
2022-12-24T19:30:14.611Z,5.54
2022-12-24T19:35:16.581Z,5.58
2022-12-24T19:40:18.134Z,5.55
2022-12-24T19:45:20.733Z,5.52
2022-12-24T19:50:22.290Z,5.48
2022-12-24T19:55:23.831Z,5.41
2022-12-24T20:00:25.491Z,5.47
2022-12-24T20:05:26.980Z,5.38
2022-12-24T20:10:28.454Z,5.26
2022-12-24T20:15:29.888Z,5.19
2022-12-24T20:20:31.378Z,5.13
2022-12-24T20:25:37.550Z,5.00
2022-12-24T20:30:40.286Z,4.91
2022-12-24T20:35:41.830Z,4.86
2022-12-24T20:40:45.266Z,4.72
2022-12-24T20:45:51.054Z,4.63
2022-12-24T20:50:52.762Z,4.62
2022-12-24T20:55:54.836Z,4.46
2022-12-24T21:00:56.368Z,4.45
2022-12-24T21:05:57.851Z,4.38
2022-12-24T21:11:18.142Z,4.26
2022-12-24T21:16:19.660Z,4.47
2022-12-24T21:21:21.670Z,4.41
2022-12-24T21:26:23.478Z,4.59
2022-12-24T21:31:25.056Z,4.60
2022-12-24T21:36:26.910Z,4.69
2022-12-24T21:41:29.026Z,4.82
2022-12-24T21:46:30.817Z,4.93
2022-12-24T21:51:33.100Z,4.91
2022-12-24T21:56:54.660Z,4.92
2022-12-24T22:01:57.059Z,4.94
2022-12-24T22:07:17.790Z,4.91
2022-12-24T22:12:19.854Z,4.92
2022-12-24T22:17:25.450Z,4.93
2022-12-24T22:22:27.451Z,4.84
2022-12-24T22:27:28.941Z,4.76
2022-12-24T22:32:30.405Z,4.84
2022-12-24T22:37:31.879Z,4.89
2022-12-24T22:42:34.090Z,4.99
2022-12-24T22:47:35.580Z,5.16
2022-12-24T22:52:37.033Z,5.26
2022-12-24T22:57:38.518Z,5.40
2022-12-24T23:02:40.152Z,5.34
2022-12-24T23:07:41.705Z,5.42
2022-12-24T23:13:01.951Z,5.29
2022-12-24T23:18:03.817Z,5.26
2022-12-24T23:23:05.314Z,5.19
2022-12-24T23:28:07.333Z,5.02
2022-12-24T23:33:08.800Z,5.02
2022-12-24T23:38:10.246Z,4.99
2022-12-24T23:43:11.734Z,5.05
2022-12-24T23:48:13.221Z,5.01
2022-12-24T23:53:15.889Z,4.99
2022-12-24T23:58:17.414Z,5.08
